Latest Coastal Weather Observations for Ngayawili (Elcho Island)

IDD60701

Issued at 9:55 pm CST Wednesday 1 October 2014 (issued every 10 minutes, with the page automatically refreshed every 10 minutes)

About coastal observations | Map of coastal stations | Coastal observations for NT | Marine services | Other Formats
Station Details ID: 014517 Name: NGAYAWILI Lat: -12.00 Lon: 135.57 Height: 8.1 m
Data from the previous 72 hours. | See also: Recent months at Ngayawili (Elcho Island)
Date/Time
CST
Temp

°C
Wind Pressure Rain
since 9am
mm
Weather Cloud Vis
km
Sea
Height
m
Swell
Dir
 
Speed
knots
Gust
knots
hPa Trend Height
m
Period
s
Dir
01/09:30pm 24.5 ENE 4 6 1012.9 - 0.0 - - - - - - -
01/09:00pm 25.0 ENE 5 8 1012.4 - 0.0 - - - - - - -
01/08:30pm 25.2 ENE 5 8 1012.2 - 0.0 - - - - - - -
01/08:00pm 25.3 ENE 6 10 1011.6 - 0.0 - - - - - - -
01/07:30pm 25.6 NE 7 11 1011.2 - 0.0 - - - - - - -
01/07:00pm 26.1 ENE 7 10 1011.1 - 0.0 - - - - - - -
01/06:30pm 26.8 ENE 7 9 1010.7 - 0.0 - - - - - - -
01/06:00pm 27.7 NE 10 14 1010.3 - 0.0 - - - - - - -
01/05:30pm 28.9 NNE 10 14 1010.0 - 0.0 - - - - - - -
01/05:00pm 29.9 NNE 11 18 1009.8 - 0.0 - - - - - - -
01/04:30pm 32.4 ESE 9 14 1009.7 - 0.0 - - - - - - -
01/04:00pm 32.3 E 10 15 1009.8 - 0.0 - - - - - - -
01/03:30pm 32.5 E 7 13 1009.9 - 0.0 - - - - - - -
01/03:00pm 32.6 E 8 15 1010.1 - 0.0 - - - - - - -
01/02:30pm 32.2 E 8 16 1010.5 - 0.0 - - - - - - -
01/02:00pm 31.8 E 9 16 1010.9 - 0.0 - - - - - - -
01/01:30pm 32.0 ESE 8 16 1011.4 - 0.0 - - - - - - -
01/01:00pm 30.9 ESE 9 13 1012.1 - 0.0 - - - - - - -
01/12:30pm 31.3 E 9 12 1012.8 - 0.0 - - - - - - -
01/12:00pm 31.2 SE 10 16 1013.4 - 0.0 - - - - - - -
01/11:30am 30.1 E 11 18 1013.8 - 0.0 - - - - - - -
01/11:00am 29.4 ESE 10 16 1014.2 - 0.0 - - - - - - -
01/10:30am 29.6 ESE 10 19 1014.6 - 0.0 - - - - - - -
01/10:00am 28.6 E 11 16 1014.7 - 0.0 - - - - - - -
01/09:30am 28.2 E 8 17 1014.8 - 0.0 - - - - - - -
01/09:00am 27.7 E 7 13 1014.7 - 0.0 - - - - - - -
01/08:30am 26.6 ESE 6 11 1014.7 - 0.0 - - - - - - -
01/08:00am 25.3 SE 6 8 1014.3 - 0.0 - - - - - - -
01/07:30am 23.4 ESE 4 7 1014.0 - 0.0 - - - - - - -
01/07:00am 21.0 SE 5 6 1013.5 - 0.0 - - - - - - -
01/06:30am 20.3 SSE 5 7 1013.1 - 0.0 - - - - - - -
01/06:00am 20.5 SSE 5 7 1013.0 - 0.0 - - - - - - -
01/05:30am 20.4 SSE 5 7 1012.8 - 0.0 - - - - - - -
01/05:00am 20.4 SE 5 7 1012.8 - 0.0 - - - - - - -
01/04:30am 20.5 ESE 6 7 1012.8 - 0.0 - - - - - - -
01/04:00am 20.7 E 5 6 1012.8 - 0.0 - - - - - - -
01/03:30am 20.5 E 5 6 1012.8 - 0.0 - - - - - - -
01/03:00am 20.3 E 5 5 1012.7 - 0.0 - - - - - - -
01/02:30am 19.8 E 3 4 1012.8 - 0.0 - - - - - - -
01/02:00am 20.4 E 2 3 1013.0 - 0.0 - - - - - - -
01/01:30am 20.9 E 3 4 1013.0 - 0.0 - - - - - - -
01/01:00am 22.0 E 4 5 1013.2 - 0.0 - - - - - - -
01/12:30am 22.6 E 4 5 1013.4 - 0.0 - - - - - - -
01/12:00am 23.5 E 4 7 1013.6 - 0.0 - - - - - - -
 
Date/Time
CST
Temp

°C
Wind Pressure Rain
since 9am
mm
Weather Cloud Vis
km
Sea
Height
m
Swell
Dir
 
Speed
knots
Gust
knots
hPa Trend Height
m
Period
s
Dir
30/11:30pm 23.7 ESE 5 8 1013.8 - 0.0 - - - - - - -
30/11:00pm 23.2 E 4 6 1014.1 - 0.0 - - - - - - -
30/10:30pm 22.9 E 5 6 1013.6 - 0.0 - - - - - - -
30/10:00pm 23.3 E 4 5 1013.4 - 0.0 - - - - - - -
30/09:30pm 23.8 E 4 5 1013.3 - 0.0 - - - - - - -
30/09:00pm 24.5 E 4 5 1013.2 - 0.0 - - - - - - -
30/08:30pm 25.0 E 4 6 1012.9 - 0.0 - - - - - - -
30/08:00pm 25.4 E 5 8 1012.7 - 0.0 - - - - - - -
30/07:30pm 25.8 ENE 7 14 1012.4 - 0.0 - - - - - - -
30/07:00pm 25.8 ENE 5 7 1012.1 - 0.0 - - - - - - -
30/06:30pm 26.4 ENE 8 12 1011.9 - 0.0 - - - - - - -
30/06:00pm 27.3 E 7 11 1011.5 - 0.0 - - - - - - -
30/05:30pm 28.1 ENE 8 13 1011.1 - 0.0 - - - - - - -
30/05:00pm 29.1 ENE 7 14 1011.0 - 0.0 - - - - - - -
30/04:30pm 29.3 NE 11 17 1011.0 - 0.0 - - - - - - -
30/04:00pm 30.3 E 9 16 1011.0 - 0.0 - - - - - - -
30/03:30pm 29.9 ENE 10 15 1011.1 - 0.0 - - - - - - -
30/03:00pm 29.8 NNE 16 24 1011.1 - 0.0 - - - - - - -
30/02:30pm 30.6 NNE 14 19 1011.3 - 0.0 - - - - - - -
30/02:00pm 30.0 NNE 11 19 1011.6 - 0.0 - - - - - - -
30/01:30pm 28.9 NNE 13 18 1012.2 - 0.0 - - - - - - -
30/01:00pm 29.8 NE 10 16 1012.5 - 0.0 - - - - - - -
30/12:30pm 30.1 NE 12 18 1012.9 - 0.0 - - - - - - -
30/12:00pm 28.3 NNE 15 21 1013.3 - 0.0 - - - - - - -
30/11:30am 29.2 NNE 14 20 1014.0 - 0.0 - - - - - - -
30/11:00am 30.6 ENE 10 17 1014.5 - 0.0 - - - - - - -
30/10:30am 29.4 ENE 9 15 1014.9 - 0.0 - - - - - - -
30/10:00am 29.7 E 9 14 1015.2 - 0.0 - - - - - - -
30/09:30am 28.9 E 9 13 1015.1 - 0.0 - - - - - - -
30/09:00am 28.5 E 7 14 1014.9 - 0.0 - - - - - - -
30/08:30am 27.5 ENE 7 12 1015.0 - 0.0 - - - - - - -
30/08:00am 26.5 E 7 9 1014.8 - 0.0 - - - - - - -
30/07:30am 25.0 E 5 8 1014.5 - 0.0 - - - - - - -
30/07:00am 23.4 E 5 8 1014.2 - 0.0 - - - - - - -
30/06:30am 22.8 E 5 8 1013.8 - 0.0 - - - - - - -
30/06:00am 22.8 E 6 9 1013.6 - 0.0 - - - - - - -
30/05:30am 22.8 E 6 8 1013.4 - 0.0 - - - - - - -
30/05:00am 22.7 ENE 5 7 1013.0 - 0.0 - - - - - - -
30/04:30am 22.6 E 5 7 1012.8 - 0.0 - - - - - - -
30/04:00am 22.7 E 5 7 1012.5 - 0.0 - - - - - - -
30/03:30am 22.7 E 5 7 1012.5 - 0.0 - - - - - - -
30/03:00am 22.7 E 5 7 1012.5 - 0.0 - - - - - - -
30/02:30am 22.9 ESE 5 7 1012.5 - 0.0 - - - - - - -
30/02:00am 23.2 ESE 5 7 1012.4 - 0.0 - - - - - - -
30/01:30am 23.4 E 5 7 1012.7 - 0.0 - - - - - - -
30/01:00am 23.5 E 5 7 1013.0 - 0.0 - - - - - - -
30/12:30am 23.8 E 5 7 1013.2 - 0.0 - - - - - - -
30/12:00am 23.8 E 5 7 1013.3 - 0.0 - - - - - - -
 
Date/Time
CST
Temp

°C
Wind Pressure Rain
since 9am
mm
Weather Cloud Vis
km
Sea
Height
m
Swell
Dir
 
Speed
knots
Gust
knots
hPa Trend Height
m
Period
s
Dir
29/11:30pm 24.2 E 5 8 1013.5 - 0.0 - - - - - - -
29/11:00pm 24.4 E 5 8 1013.7 - 0.0 - - - - - - -
29/10:30pm 24.6 E 6 10 1013.7 - 0.0 - - - - - - -
29/10:00pm 24.7 E 7 10 1013.5 - 0.0 - - - - - - -
29/09:30pm 24.8 E 6 9 1013.2 - 0.0 - - - - - - -
29/09:00pm 24.9 E 7 10 1012.8 - 0.0 - - - - - - -
29/08:30pm 25.0 ENE 7 10 1012.6 - 0.0 - - - - - - -
29/08:00pm 25.2 ENE 5 8 1012.3 - 0.0 - - - - - - -
29/07:30pm 25.6 ENE 6 8 1011.9 - 0.0 - - - - - - -
29/07:00pm 26.0 ENE 6 11 1011.5 - 0.0 - - - - - - -
29/06:30pm 26.5 ENE 7 11 1011.3 - 0.0 - - - - - - -
29/06:00pm 27.3 E 7 10 1011.0 - 0.0 - - - - - - -
29/05:30pm 28.1 E 7 10 1010.7 - 0.0 - - - - - - -
29/05:00pm 29.0 E 9 15 1010.4 - 0.0 - - - - - - -
29/04:30pm 29.7 ENE 8 14 1010.2 - 0.0 - - - - - - -
29/04:00pm 30.1 NE 10 16 1010.3 - 0.0 - - - - - - -
29/03:30pm 29.8 NE 12 18 1010.4 - 0.0 - - - - - - -
29/03:00pm 31.3 NNE 15 22 1010.4 - 0.0 - - - - - - -
29/02:30pm 30.6 NNE 18 23 1010.4 - 0.0 - - - - - - -
29/02:00pm 30.6 NNE 16 23 1010.7 - 0.0 - - - - - - -
29/01:30pm 30.4 NNE 15 23 1011.1 - 0.0 - - - - - - -
29/01:00pm 29.8 NNE 13 19 1011.7 - 0.0 - - - - - - -
29/12:30pm 29.8 NNE 15 19 1012.0 - 0.0 - - - - - - -
29/12:00pm 30.3 N 16 22 1012.4 - 0.0 - - - - - - -
29/11:30am 29.9 N 16 20 1012.9 - 0.0 - - - - - - -
29/11:00am 30.1 N 14 19 1013.2 - 0.0 - - - - - - -
29/10:30am 30.5 NE 11 15 1013.5 - 0.0 - - - - - - -
29/10:00am 29.5 NE 11 16 1013.8 - 0.0 - - - - - - -
29/09:30am 28.7 NNE 12 17 1013.9 - 0.0 - - - - - - -
29/09:00am 27.6 NE 11 16 1014.1 - 0.0 - - - - - - -
29/08:30am 26.7 NE 11 17 1014.0 - 0.0 - - - - - - -
29/08:00am 26.8 NE 10 16 1013.5 - 0.0 - - - - - - -
29/07:30am 26.0 NE 9 14 1013.0 - 0.0 - - - - - - -
29/07:00am 25.4 NE 8 14 1012.7 - 0.0 - - - - - - -
29/06:30am 24.8 NE 8 14 1012.3 - 0.0 - - - - - - -
29/06:00am 24.5 NE 8 12 1012.1 - 0.0 - - - - - - -
29/05:30am 24.5 NE 8 14 1011.8 - 0.0 - - - - - - -
29/05:00am 24.5 NE 9 15 1011.4 - 0.0 - - - - - - -
29/04:30am 23.9 NE 6 11 1011.2 - 0.0 - - - - - - -
29/04:00am 23.1 ENE 5 9 1010.9 - 0.0 - - - - - - -
29/03:30am 22.7 ENE 5 6 1010.8 - 0.0 - - - - - - -
29/03:00am 22.5 NE 5 8 1010.8 - 0.0 - - - - - - -
29/02:30am 22.0 E 5 7 1011.0 - 0.0 - - - - - - -
29/02:00am 22.1 E 4 5 1011.6 - 0.0 - - - - - - -
29/01:30am 22.2 E 4 4 1011.9 - 0.0 - - - - - - -
29/01:00am 22.4 E 4 4 1012.2 - 0.0 - - - - - - -
29/12:30am 23.4 E 4 8 1012.3 - 0.0 - - - - - - -
29/12:00am 23.3 ENE 4 7 1012.5 - 0.0 - - - - - - -
 
Date/Time
CST
Temp

°C
Wind Pressure Rain
since 9am
mm
Weather Cloud Vis
km
Sea
Height
m
Swell
Dir
 
Speed
knots
Gust
knots
hPa Trend Height
m
Period
s
Dir
28/11:30pm 23.3 ENE 5 6 1013.0 - 0.0 - - - - - - -
28/11:00pm 23.3 ENE 5 6 1013.2 - 0.0 - - - - - - -
28/10:30pm 23.6 ENE 4 6 1013.3 - 0.0 - - - - - - -
28/10:00pm 23.6 ENE 4 5 1013.0 - 0.0 - - - - - - -

Other Formats:

Comma delimited format used in spreadsheet applications
http://www.bom.gov.au/fwo/IDD60701/IDD60701.95146.axf

JavaScript Object Notation format (JSON) in row-major order
http://www.bom.gov.au/fwo/IDD60701/IDD60701.95146.json